Аэропорт: Кольцово. Екатеринбург

ICAO: USSS

METAR:
2021-01-20 04:00:00
USSS 200400Z 10002MPS 3300 1600E SHSN BKN024CB M16/M17 Q1011 RESHSN R08L/490333 TEMPO 0900 +SHSN VV005 RMK QFE738/0985
METAR:
2021-01-20 01:56:00
TAF USSS 200156Z 2003/2103 08003G08MPS 2100 -SHSN BKN011CB TEMPO 2003/2012 11003G13MPS 0900 +SHSN VV004 BECMG 2012/2013 30003G10MPS 3100 -SHSN FM201900 27005G13MPS 6000 -SN BKN016